Terminal Aerodrome Forecast
Issued by NWS

Current Version | Previous Version | Text Only | Print | Product List | Glossary Off
Versions: 1 2 3 4 5 6 7 8 9 10 11 12 13 14 15 16 17 18 19 20 21

000
FTUS41 KILN 272331 AAB
TAFLCK
TAF AMD
KLCK 272331Z 2800/2824 VRB04KT P6SM BKN100
     FM280800 VRB03KT 5SM BR BKN015
     FM281100 14005KT 5SM BR VCTS OVC015CB
     FM281500 18007KT P6SM BKN025
     FM282000 20012G20KT P6SM VCTS BKN045CB=

USA.gov is the U.S. government's official web portal to all federal, state and local government web resources and services.